Terminal Aerodrome Forecast
Issued by NWS

Home | Current Version | Previous Version | Text Only | Print | Product List | Glossary On
Versions: 1 2 3 4 5 6 7 8 9 10 11 12 13
000
FTUS45 KMSO 071732
TAFSMN
TAF
KSMN 071732Z 0718/0818 34006KT P6SM SCT070
     FM072200 34010KT P6SM VCSH SCT070 BKN100
     FM080300 02006KT P6SM FEW050
      AMD LTD TO CLD VIS AND WIND=

USA.gov is the U.S. government's official web portal to all federal, state and local government web resources and services.